createdAt,value
2022-09-28T00:01:25.704Z,58.90
2022-09-28T00:03:57.569Z,58.90
2022-09-28T00:06:28.410Z,58.90
2022-09-28T00:08:58.778Z,58.90
2022-09-28T00:11:28.488Z,58.90
2022-09-28T00:14:01.465Z,58.90
2022-09-28T00:16:32.623Z,58.90
2022-09-28T00:19:01.367Z,58.90
2022-09-28T00:21:31.434Z,58.90
2022-09-28T00:24:15.328Z,58.90
2022-09-28T00:26:46.986Z,58.90
2022-09-28T00:29:22.659Z,58.90
2022-09-28T00:31:53.373Z,58.70
2022-09-28T00:34:22.019Z,58.90
2022-09-28T00:36:50.547Z,58.90
2022-09-28T00:39:20.621Z,58.90
2022-09-28T00:41:49.876Z,58.90
2022-09-28T00:44:38.851Z,58.90
2022-09-28T00:47:46.675Z,58.90
2022-09-28T00:50:21.577Z,58.90
2022-09-28T00:52:54.314Z,58.90
2022-09-28T00:55:29.631Z,58.70
2022-09-28T00:58:00.647Z,58.70
2022-09-28T01:00:29.501Z,58.70
2022-09-28T01:02:59.645Z,58.70
2022-09-28T01:05:28.721Z,58.70
2022-09-28T01:07:58.529Z,58.70
2022-09-28T01:10:30.204Z,58.70
2022-09-28T01:12:59.328Z,58.70
2022-09-28T01:15:29.869Z,58.80
2022-09-28T01:18:12.739Z,58.70
2022-09-28T01:21:02.557Z,58.80
2022-09-28T01:24:11.004Z,58.70
2022-09-28T01:27:11.576Z,58.80
2022-09-28T01:29:47.771Z,58.70
2022-09-28T01:32:26.456Z,58.70
2022-09-28T01:35:00.635Z,58.70
2022-09-28T01:37:34.948Z,58.70
2022-09-28T01:40:06.137Z,58.80
2022-09-28T01:42:40.013Z,58.80
2022-09-28T01:45:16.117Z,58.80
2022-09-28T01:47:47.313Z,58.70
2022-09-28T01:50:19.107Z,58.90
2022-09-28T01:52:52.939Z,58.80
2022-09-28T01:55:29.392Z,58.70
2022-09-28T01:58:04.572Z,58.70
2022-09-28T02:00:35.963Z,58.70
2022-09-28T02:03:10.625Z,58.80
2022-09-28T02:05:50.072Z,58.80
2022-09-28T02:08:25.488Z,58.80
2022-09-28T02:10:59.449Z,58.70
2022-09-28T02:13:34.226Z,58.70
2022-09-28T02:16:08.724Z,58.70
2022-09-28T02:18:37.661Z,58.70
2022-09-28T02:21:12.297Z,58.70
2022-09-28T02:23:44.738Z,58.80
2022-09-28T02:26:18.536Z,58.70
2022-09-28T02:28:48.258Z,58.70
2022-09-28T02:31:16.782Z,58.80
2022-09-28T02:33:46.551Z,58.70
2022-09-28T02:36:15.715Z,58.70
2022-09-28T02:38:44.320Z,58.70
2022-09-28T02:41:26.297Z,58.70
2022-09-28T02:46:38.337Z,57.70
2022-09-28T02:49:27.915Z,58.70
2022-09-28T02:52:28.410Z,58.70
2022-09-28T02:55:18.268Z,58.70
2022-09-28T02:57:59.685Z,58.70
2022-09-28T03:00:32.363Z,58.60
2022-09-28T03:03:15.204Z,58.70
2022-09-28T03:05:50.940Z,58.70
2022-09-28T03:08:24.928Z,58.70
2022-09-28T03:10:59.055Z,58.70
2022-09-28T03:13:29.546Z,58.70
2022-09-28T03:16:10.625Z,58.60
2022-09-28T03:18:39.388Z,58.60
2022-09-28T03:21:08.355Z,58.60
2022-09-28T03:23:36.961Z,58.60
2022-09-28T03:26:05.669Z,58.60
2022-09-28T03:28:36.351Z,58.60
2022-09-28T03:31:05.886Z,58.60
2022-09-28T03:33:35.835Z,58.60
2022-09-28T03:36:04.284Z,58.60
2022-09-28T03:38:34.611Z,58.60
2022-09-28T03:41:03.168Z,58.60
2022-09-28T03:43:36.568Z,58.60
2022-09-28T03:46:06.076Z,58.60
2022-09-28T03:48:42.462Z,58.60
2022-09-28T03:51:13.667Z,58.60
2022-09-28T03:53:42.084Z,58.60
2022-09-28T03:56:14.326Z,58.60
2022-09-28T03:58:43.235Z,58.60
2022-09-28T04:01:17.614Z,58.60
2022-09-28T04:03:53.894Z,58.60
2022-09-28T04:06:22.687Z,58.60
2022-09-28T04:08:51.674Z,58.60
2022-09-28T04:11:20.366Z,58.60
2022-09-28T04:13:50.603Z,58.60
2022-09-28T04:16:19.723Z,58.60
2022-09-28T04:19:00.626Z,58.60
2022-09-28T04:21:50.632Z,58.60
2022-09-28T04:24:20.311Z,58.60
2022-09-28T04:26:49.533Z,58.60
2022-09-28T04:29:18.604Z,58.60
2022-09-28T04:31:58.334Z,58.60
2022-09-28T04:34:37.974Z,58.60
2022-09-28T04:37:08.361Z,58.60
2022-09-28T04:39:36.790Z,58.60
2022-09-28T04:42:05.629Z,58.60
2022-09-28T04:44:33.996Z,58.60
2022-09-28T04:47:08.524Z,58.60
2022-09-28T04:49:58.580Z,59.80
2022-09-28T04:52:31.944Z,58.60
2022-09-28T04:55:00.342Z,58.60
2022-09-28T04:57:28.741Z,58.60
2022-09-28T04:59:57.173Z,58.60
2022-09-28T05:02:25.652Z,58.60
2022-09-28T05:05:14.520Z,58.60
2022-09-28T05:08:09.020Z,58.60
2022-09-28T05:10:40.409Z,58.60
2022-09-28T05:13:09.826Z,58.60
2022-09-28T05:15:38.849Z,58.60
2022-09-28T05:18:08.215Z,58.60
2022-09-28T05:20:58.218Z,59.70
2022-09-28T05:23:26.615Z,58.50
2022-09-28T05:25:57.933Z,58.50
2022-09-28T05:28:30.835Z,58.50
2022-09-28T05:31:18.031Z,58.50
2022-09-28T05:34:24.847Z,58.50
2022-09-28T05:36:56.626Z,58.50
2022-09-28T05:39:25.099Z,58.50
2022-09-28T05:41:53.487Z,58.50
2022-09-28T05:44:22.849Z,58.50
2022-09-28T05:46:51.492Z,58.50
2022-09-28T05:49:20.011Z,58.50
2022-09-28T05:51:49.187Z,58.50
2022-09-28T05:54:19.188Z,58.50
2022-09-28T05:56:48.512Z,58.50
2022-09-28T05:59:17.765Z,58.50
2022-09-28T06:01:46.199Z,58.50
2022-09-28T06:04:16.209Z,58.50
2022-09-28T06:06:46.214Z,58.50
2022-09-28T06:09:15.010Z,58.50
2022-09-28T06:12:08.583Z,58.50
2022-09-28T06:14:42.798Z,58.50
2022-09-28T06:17:12.624Z,58.50
2022-09-28T06:19:41.313Z,58.50
2022-09-28T06:22:36.882Z,58.50
2022-09-28T06:25:10.278Z,58.50
2022-09-28T06:27:42.809Z,58.40
2022-09-28T06:30:12.634Z,58.40
2022-09-28T06:32:42.249Z,58.40
2022-09-28T06:35:11.314Z,58.40
2022-09-28T06:37:40.041Z,58.40
2022-09-28T06:40:09.546Z,58.40
2022-09-28T06:42:38.223Z,58.40
2022-09-28T06:45:29.755Z,58.40
2022-09-28T06:48:24.357Z,58.40
2022-09-28T06:50:52.945Z,58.40
2022-09-28T06:53:30.174Z,58.40
2022-09-28T06:56:19.638Z,58.40
2022-09-28T06:58:56.638Z,58.40
2022-09-28T07:01:27.277Z,58.50
2022-09-28T07:04:25.111Z,58.40
2022-09-28T07:07:31.935Z,58.50
2022-09-28T07:10:23.150Z,58.60
2022-09-28T07:13:36.417Z,58.40
2022-09-28T07:16:09.598Z,58.50
2022-09-28T07:18:40.759Z,58.60
2022-09-28T07:21:18.166Z,58.60
2022-09-28T07:23:54.698Z,58.60
2022-09-28T07:26:29.250Z,58.50
2022-09-28T07:29:06.021Z,58.60
2022-09-28T07:31:55.721Z,58.60
2022-09-28T07:34:58.862Z,58.50
2022-09-28T07:38:00.986Z,58.50
2022-09-28T07:40:48.746Z,58.40
2022-09-28T07:43:20.917Z,58.50
2022-09-28T07:45:58.808Z,58.80
2022-09-28T07:48:27.855Z,58.60
2022-09-28T07:51:14.432Z,58.60
2022-09-28T07:53:57.262Z,58.40
2022-09-28T07:56:28.633Z,58.80
2022-09-28T07:59:28.596Z,58.60
2022-09-28T08:02:15.956Z,58.70
2022-09-28T08:04:45.804Z,58.80
2022-09-28T08:07:20.473Z,58.90
2022-09-28T08:09:57.123Z,58.70
2022-09-28T08:12:30.309Z,58.80
2022-09-28T08:15:19.254Z,58.60
2022-09-28T08:18:23.158Z,58.80
2022-09-28T08:21:12.306Z,58.80
2022-09-28T08:23:43.759Z,58.90
2022-09-28T08:26:15.566Z,58.70
2022-09-28T08:28:47.932Z,58.60
2022-09-28T08:31:35.099Z,58.60
2022-09-28T08:34:14.873Z,58.90
2022-09-28T08:37:16.242Z,58.90
2022-09-28T08:39:46.085Z,58.70
2022-09-28T08:42:34.718Z,59.00
2022-09-28T08:45:20.548Z,58.90
2022-09-28T08:48:23.768Z,58.80
2022-09-28T08:51:18.614Z,58.60
2022-09-28T08:54:19.567Z,58.50
2022-09-28T08:56:56.295Z,58.70
2022-09-28T08:59:27.605Z,58.60
2022-09-28T09:02:04.619Z,58.40
2022-09-28T09:04:35.536Z,58.40
2022-09-28T09:07:35.377Z,58.40
2022-09-28T09:10:24.655Z,58.50
2022-09-28T09:13:04.820Z,58.50
2022-09-28T09:15:49.631Z,58.50
2022-09-28T09:18:33.681Z,58.50
2022-09-28T09:21:14.920Z,58.40
2022-09-28T09:23:55.156Z,58.50
2022-09-28T09:26:34.363Z,58.50
2022-09-28T09:29:22.955Z,58.50
2022-09-28T09:32:10.386Z,58.40
2022-09-28T09:35:26.232Z,58.40
2022-09-28T09:38:33.504Z,58.50
2022-09-28T09:41:36.153Z,58.60
2022-09-28T09:44:57.063Z,58.80
2022-09-28T09:47:52.025Z,58.60
2022-09-28T09:50:30.844Z,58.40
2022-09-28T09:53:06.145Z,58.40
2022-09-28T09:55:41.913Z,58.50
2022-09-28T09:58:27.583Z,58.60
2022-09-28T10:01:09.201Z,58.50
2022-09-28T10:04:06.335Z,58.50
2022-09-28T10:06:38.091Z,58.60
2022-09-28T10:09:11.619Z,59.10
2022-09-28T10:11:44.381Z,58.50
2022-09-28T10:14:20.038Z,58.50
2022-09-28T10:16:57.763Z,58.50
2022-09-28T10:19:45.114Z,58.50
2022-09-28T10:22:45.977Z,58.50
2022-09-28T10:25:20.416Z,58.60
2022-09-28T10:27:52.560Z,58.50
2022-09-28T10:30:23.954Z,58.50
2022-09-28T10:32:59.173Z,58.50
2022-09-28T10:35:42.143Z,58.50
2022-09-28T10:38:17.917Z,58.50
2022-09-28T10:41:13.539Z,58.50
2022-09-28T10:44:17.904Z,58.50
2022-09-28T10:47:20.091Z,58.50
2022-09-28T10:49:51.527Z,58.50
2022-09-28T10:52:41.599Z,58.50
2022-09-28T10:55:29.461Z,58.50
2022-09-28T10:57:58.486Z,58.50
2022-09-28T11:00:41.212Z,58.50
2022-09-28T11:03:24.288Z,58.60
2022-09-28T11:06:00.665Z,58.50
2022-09-28T11:08:33.909Z,58.50
2022-09-28T11:11:10.012Z,58.50
2022-09-28T11:13:49.225Z,59.70
2022-09-28T11:16:27.009Z,58.50
2022-09-28T11:18:56.819Z,58.50
2022-09-28T11:21:28.808Z,58.50
2022-09-28T11:24:06.527Z,58.50
2022-09-28T11:26:41.920Z,58.50
2022-09-28T11:29:27.744Z,58.50
2022-09-28T11:32:32.526Z,58.50
2022-09-28T11:35:22.010Z,58.50
2022-09-28T11:38:27.894Z,58.40
2022-09-28T11:41:39.102Z,58.50
2022-09-28T11:44:38.415Z,58.50
2022-09-28T11:47:39.265Z,58.50
2022-09-28T11:50:22.901Z,58.50
2022-09-28T11:52:58.656Z,58.50
2022-09-28T11:55:36.047Z,58.50
2022-09-28T11:58:11.296Z,58.40
2022-09-28T12:00:46.882Z,58.40
2022-09-28T12:03:19.911Z,58.40
2022-09-28T12:05:53.200Z,58.40
2022-09-28T12:08:27.461Z,58.40
2022-09-28T12:11:15.654Z,58.50
2022-09-28T12:14:27.468Z,58.40
2022-09-28T12:17:07.898Z,58.40
2022-09-28T12:19:42.284Z,58.40
2022-09-28T12:22:17.120Z,58.40
2022-09-28T12:24:48.774Z,58.40
2022-09-28T12:27:24.438Z,58.40
2022-09-28T12:29:57.934Z,59.60
2022-09-28T12:32:32.205Z,58.40
2022-09-28T12:35:00.573Z,58.40
2022-09-28T12:37:43.957Z,58.40
2022-09-28T12:40:36.349Z,58.50
2022-09-28T12:43:28.934Z,58.40
2022-09-28T12:46:14.180Z,58.40
2022-09-28T12:52:23.814Z,58.40
2022-09-28T12:55:07.023Z,58.40
2022-09-28T12:57:48.062Z,58.50
2022-09-28T13:00:22.245Z,58.40
2022-09-28T13:03:31.703Z,58.40
2022-09-28T13:06:36.787Z,58.40
2022-09-28T13:09:17.219Z,58.40
2022-09-28T13:12:02.191Z,58.40
2022-09-28T13:15:09.979Z,58.40
2022-09-28T13:17:51.426Z,58.50
2022-09-28T13:20:35.913Z,58.40
2022-09-28T13:23:15.124Z,58.50
2022-09-28T13:25:48.893Z,58.70
2022-09-28T13:28:20.637Z,58.50
2022-09-28T13:30:51.409Z,59.60
2022-09-28T13:33:33.901Z,58.40
2022-09-28T13:36:05.647Z,58.40
2022-09-28T13:38:52.204Z,58.40
2022-09-28T13:41:29.157Z,58.40
2022-09-28T13:44:23.810Z,58.40
2022-09-28T13:47:23.144Z,58.50
2022-09-28T13:50:04.732Z,58.40
2022-09-28T13:52:44.765Z,58.40
2022-09-28T13:55:24.814Z,58.50
2022-09-28T13:57:57.862Z,58.50
2022-09-28T14:00:30.755Z,58.50
2022-09-28T14:03:05.593Z,58.50
2022-09-28T14:05:48.498Z,58.50
2022-09-28T14:08:33.681Z,58.40
2022-09-28T14:11:42.496Z,58.60
2022-09-28T14:14:51.361Z,58.50
2022-09-28T14:17:55.493Z,58.50
2022-09-28T14:20:27.325Z,58.50
2022-09-28T14:23:30.819Z,58.60
2022-09-28T14:26:25.813Z,58.50
2022-09-28T14:29:10.179Z,58.60
2022-09-28T14:31:43.534Z,58.50
2022-09-28T14:34:27.758Z,58.50
2022-09-28T14:37:13.446Z,58.60
2022-09-28T14:40:03.409Z,58.50
2022-09-28T14:42:31.796Z,58.50
2022-09-28T14:45:21.910Z,58.50
2022-09-28T14:48:21.504Z,58.50
2022-09-28T14:50:50.235Z,59.70
2022-09-28T14:53:23.940Z,58.60
2022-09-28T14:55:58.732Z,58.60
2022-09-28T14:58:29.719Z,58.90
2022-09-28T15:01:03.587Z,59.00
2022-09-28T15:03:35.182Z,59.10
2022-09-28T15:06:03.520Z,59.10
2022-09-28T15:08:39.540Z,59.30
2022-09-28T15:11:15.238Z,59.30
2022-09-28T15:13:44.011Z,59.10
2022-09-28T15:16:14.229Z,59.10
2022-09-28T15:19:04.233Z,59.10
2022-09-28T15:21:37.933Z,59.00
2022-09-28T15:24:28.601Z,59.00
2022-09-28T15:26:58.589Z,58.70
2022-09-28T15:29:31.094Z,58.50
2022-09-28T15:31:59.447Z,58.60
2022-09-28T15:34:47.444Z,58.60
2022-09-28T15:37:19.016Z,58.50
2022-09-28T15:39:48.209Z,58.50
2022-09-28T15:42:18.902Z,58.60
2022-09-28T15:45:07.827Z,58.50
2022-09-28T15:47:40.013Z,58.50
2022-09-28T15:50:20.998Z,58.50
2022-09-28T15:52:56.393Z,58.50
2022-09-28T15:55:28.552Z,58.50
2022-09-28T15:58:16.699Z,58.50
2022-09-28T16:00:46.476Z,58.60
2022-09-28T16:03:24.562Z,59.40
2022-09-28T16:06:06.121Z,60.50
2022-09-28T16:08:40.614Z,60.60
2022-09-28T16:11:16.221Z,61.00
2022-09-28T16:14:01.758Z,60.90
2022-09-28T16:16:34.110Z,61.00
2022-09-28T16:19:03.633Z,61.10
2022-09-28T16:21:44.353Z,61.20
2022-09-28T16:24:25.282Z,61.30
2022-09-28T16:26:59.484Z,61.20
2022-09-28T16:29:39.727Z,61.30
2022-09-28T16:32:37.593Z,61.30
2022-09-28T16:35:30.019Z,61.40
2022-09-28T16:38:01.349Z,61.50
2022-09-28T16:40:30.534Z,61.40
2022-09-28T16:43:03.347Z,61.50
2022-09-28T16:45:35.279Z,61.20
2022-09-28T16:48:04.217Z,61.20
2022-09-28T16:50:32.548Z,61.30
2022-09-28T16:53:20.950Z,61.20
2022-09-28T16:55:50.719Z,61.10
2022-09-28T16:58:18.942Z,61.20
2022-09-28T17:00:48.699Z,61.20
2022-09-28T17:03:19.385Z,61.10
2022-09-28T17:05:49.189Z,61.00
2022-09-28T17:08:19.413Z,61.00
2022-09-28T17:11:14.021Z,60.90
2022-09-28T17:13:42.228Z,61.00
2022-09-28T17:16:16.149Z,61.00
2022-09-28T17:18:44.983Z,61.00
2022-09-28T17:21:16.095Z,61.00
2022-09-28T17:23:44.576Z,61.00
2022-09-28T17:26:19.519Z,60.90
2022-09-28T17:28:48.136Z,60.90
2022-09-28T17:31:18.354Z,61.00
2022-09-28T17:33:47.158Z,60.90
2022-09-28T17:36:18.194Z,60.80
2022-09-28T17:38:48.327Z,60.80
2022-09-28T17:41:20.627Z,60.80
2022-09-28T17:43:49.719Z,60.70
2022-09-28T17:46:27.721Z,60.70
2022-09-28T17:48:59.581Z,60.60
2022-09-28T17:51:30.160Z,60.60
2022-09-28T17:53:58.864Z,60.60
2022-09-28T17:56:31.691Z,60.50
2022-09-28T17:59:03.776Z,60.50
2022-09-28T18:01:35.069Z,60.50
2022-09-28T18:04:05.362Z,60.40
2022-09-28T18:06:34.436Z,60.40
2022-09-28T18:09:03.374Z,60.40
2022-09-28T18:11:32.476Z,60.30
2022-09-28T18:14:01.432Z,60.40
2022-09-28T18:16:30.154Z,60.30
2022-09-28T18:19:00.022Z,60.30
2022-09-28T18:21:28.412Z,60.20
2022-09-28T18:23:56.720Z,60.10
2022-09-28T18:26:25.226Z,60.10
2022-09-28T18:28:55.854Z,60.10
2022-09-28T18:31:24.202Z,60.00
2022-09-28T18:33:57.829Z,61.30
2022-09-28T18:36:30.729Z,60.00
2022-09-28T18:39:00.991Z,60.00
2022-09-28T18:41:29.687Z,60.00
2022-09-28T18:44:00.832Z,60.00
2022-09-28T18:46:30.451Z,60.00
2022-09-28T18:48:58.843Z,59.90
2022-09-28T18:51:27.176Z,60.00
2022-09-28T18:53:56.962Z,59.90
2022-09-28T18:56:25.686Z,59.80
2022-09-28T18:58:54.090Z,59.80
2022-09-28T19:01:29.892Z,59.80
2022-09-28T19:04:01.244Z,59.80
2022-09-28T19:06:30.260Z,59.70
2022-09-28T19:09:00.953Z,59.70
2022-09-28T19:11:29.685Z,59.70
2022-09-28T19:13:58.362Z,59.70
2022-09-28T19:16:28.516Z,59.70
2022-09-28T19:18:58.558Z,59.70
2022-09-28T19:21:27.179Z,59.70
2022-09-28T19:23:55.670Z,59.70
2022-09-28T19:26:27.573Z,59.50
2022-09-28T19:28:57.378Z,59.40
2022-09-28T19:31:27.251Z,59.50
2022-09-28T19:33:55.630Z,59.40
2022-09-28T19:36:25.923Z,59.50
2022-09-28T19:38:54.995Z,59.50
2022-09-28T19:41:44.460Z,59.40
2022-09-28T19:44:19.845Z,59.40
2022-09-28T19:46:48.640Z,59.60
2022-09-28T19:49:19.576Z,59.50
2022-09-28T19:52:12.808Z,59.40
2022-09-28T19:54:43.826Z,59.30
2022-09-28T19:57:15.995Z,59.40
2022-09-28T19:59:45.393Z,59.30
2022-09-28T20:02:15.906Z,59.50
2022-09-28T20:04:44.263Z,59.70
2022-09-28T20:07:12.719Z,59.60
2022-09-28T20:09:41.131Z,59.70
2022-09-28T20:12:09.793Z,59.70
2022-09-28T20:14:40.529Z,59.70
2022-09-28T20:17:09.246Z,59.80
2022-09-28T20:19:37.597Z,59.70
2022-09-28T20:22:05.998Z,59.70
2022-09-28T20:24:34.474Z,59.70
2022-09-28T20:27:02.938Z,59.70
2022-09-28T20:29:33.390Z,59.60
2022-09-28T20:32:04.383Z,59.50
2022-09-28T20:34:33.577Z,59.50
2022-09-28T20:37:02.523Z,59.50
2022-09-28T20:39:30.933Z,59.40
2022-09-28T20:41:59.271Z,59.50
2022-09-28T20:44:27.644Z,59.60
2022-09-28T20:46:56.241Z,59.50
2022-09-28T20:49:27.271Z,59.50
2022-09-28T20:51:55.832Z,59.50
2022-09-28T20:54:24.178Z,59.40
2022-09-28T20:56:52.568Z,59.40
2022-09-28T20:59:22.902Z,59.40
2022-09-28T21:01:51.405Z,59.40
2022-09-28T21:04:20.217Z,59.50
2022-09-28T21:06:50.149Z,59.40
2022-09-28T21:09:18.515Z,59.40
2022-09-28T21:11:48.156Z,59.40
2022-09-28T21:14:16.594Z,59.40
2022-09-28T21:16:45.023Z,59.50
2022-09-28T21:19:13.679Z,59.30
2022-09-28T21:21:42.059Z,59.40
2022-09-28T21:24:12.083Z,59.30
2022-09-28T21:26:40.418Z,59.30
2022-09-28T21:29:12.863Z,59.30
2022-09-28T21:31:42.874Z,59.20
2022-09-28T21:34:13.378Z,59.40
2022-09-28T21:36:43.650Z,59.50
2022-09-28T21:39:13.488Z,59.30
2022-09-28T21:41:43.343Z,59.40
2022-09-28T21:44:12.168Z,59.40
2022-09-28T21:46:40.985Z,59.20
2022-09-28T21:49:12.740Z,59.20
2022-09-28T21:51:41.217Z,59.10
2022-09-28T21:54:09.793Z,59.10
2022-09-28T21:56:39.587Z,59.20
2022-09-28T21:59:08.031Z,59.20
2022-09-28T22:01:36.487Z,59.10
2022-09-28T22:04:04.907Z,59.00
2022-09-28T22:06:33.313Z,58.90
2022-09-28T22:09:01.712Z,58.90
2022-09-28T22:11:30.511Z,58.90
2022-09-28T22:14:01.551Z,58.90
2022-09-28T22:16:31.946Z,58.80
2022-09-28T22:19:01.122Z,58.80
2022-09-28T22:21:31.887Z,58.80
2022-09-28T22:24:01.975Z,58.80
2022-09-28T22:26:31.751Z,58.80
2022-09-28T22:29:03.390Z,58.80
2022-09-28T22:31:33.868Z,58.70
2022-09-28T22:34:02.927Z,58.80
2022-09-28T22:36:31.772Z,58.70
2022-09-28T22:39:00.586Z,58.80
2022-09-28T22:41:29.074Z,58.80
2022-09-28T22:43:57.761Z,58.80
2022-09-28T22:46:29.393Z,58.80
2022-09-28T22:49:00.158Z,58.80
2022-09-28T22:51:30.552Z,58.80
2022-09-28T22:53:59.254Z,58.80
2022-09-28T22:56:27.745Z,58.70
2022-09-28T22:58:56.342Z,58.70
2022-09-28T23:01:26.244Z,58.80
2022-09-28T23:03:57.147Z,58.70
2022-09-28T23:06:27.864Z,58.70
2022-09-28T23:08:58.659Z,58.60
2022-09-28T23:11:27.275Z,58.70
2022-09-28T23:13:57.498Z,58.70
2022-09-28T23:16:26.902Z,58.60
2022-09-28T23:18:57.064Z,58.60
2022-09-28T23:21:27.305Z,58.60
2022-09-28T23:23:57.318Z,58.60
2022-09-28T23:26:28.079Z,58.60
2022-09-28T23:28:57.202Z,58.80
2022-09-28T23:31:27.753Z,58.70
2022-09-28T23:34:00.843Z,58.70
2022-09-28T23:36:29.929Z,58.60
2022-09-28T23:38:58.777Z,58.60
2022-09-28T23:41:27.327Z,58.70
2022-09-28T23:43:57.775Z,58.70
2022-09-28T23:46:26.313Z,58.60
2022-09-28T23:48:54.945Z,58.60
2022-09-28T23:51:24.711Z,58.70
2022-09-28T23:53:53.072Z,58.60
2022-09-28T23:56:21.603Z,58.60
2022-09-28T23:58:49.963Z,58.60
